createdAt,value
2023-03-29T00:00:28.370Z,0.9
2023-03-29T00:01:35.491Z,0.9
2023-03-29T00:02:29.025Z,1
2023-03-29T00:03:29.543Z,0.9
2023-03-29T00:04:29.981Z,0.9
2023-03-29T00:05:30.251Z,0.9
2023-03-29T00:06:30.576Z,1
2023-03-29T00:07:31.497Z,1
2023-03-29T00:08:32.832Z,0.9
2023-03-29T00:09:32.705Z,1.1
2023-03-29T00:10:33.364Z,0.8
2023-03-29T00:11:33.158Z,0.9
2023-03-29T00:12:33.160Z,0.8
2023-03-29T00:13:34.107Z,1
2023-03-29T00:14:33.813Z,0.8
2023-03-29T00:15:34.312Z,0.9
2023-03-29T00:16:34.786Z,0.8
2023-03-29T00:17:35.167Z,0.9
2023-03-29T00:18:35.562Z,0.8
2023-03-29T00:19:36.114Z,0.7
2023-03-29T00:20:36.620Z,0.9
2023-03-29T00:21:36.708Z,0.9
2023-03-29T00:22:39.077Z,0.8
2023-03-29T00:23:38.677Z,0.8
2023-03-29T00:24:38.072Z,0.8
2023-03-29T00:25:38.236Z,0.9
2023-03-29T00:26:38.886Z,0.9
2023-03-29T00:27:39.606Z,0.9
2023-03-29T00:28:40.042Z,0.9
2023-03-29T00:29:39.933Z,0.8
2023-03-29T00:30:40.552Z,0.7
2023-03-29T00:31:41.545Z,1.1
2023-03-29T00:32:42.038Z,0.8
2023-03-29T00:33:42.627Z,0.8
2023-03-29T00:34:42.751Z,0.9
2023-03-29T00:35:43.367Z,0.9
2023-03-29T00:36:43.575Z,0.8
2023-03-29T00:37:43.964Z,0.9
2023-03-29T00:38:44.307Z,0.8
2023-03-29T00:39:45.663Z,0.9
2023-03-29T00:40:46.764Z,0.8
2023-03-29T00:41:46.570Z,0.7
2023-03-29T00:42:46.070Z,0.8
2023-03-29T00:45:49.464Z,1
2023-03-29T00:46:49.661Z,0.9
2023-03-29T00:48:55.222Z,0.9
2023-03-29T00:49:54.516Z,0.8
2023-03-29T00:51:55.154Z,0.9
2023-03-29T00:55:01.611Z,0.7
2023-03-29T00:56:59.599Z,0.8
2023-03-29T01:00:05.602Z,0.6
2023-03-29T01:01:08.925Z,0.8
2023-03-29T01:02:09.408Z,0.9
2023-03-29T01:03:13.068Z,0.9
2023-03-29T01:05:18.680Z,0.7
2023-03-29T01:06:13.976Z,0.7
2023-03-29T01:15:37.286Z,0.8
2023-03-29T01:16:36.921Z,0.8
2023-03-29T01:17:37.468Z,0.8
2023-03-29T01:18:37.196Z,0.8
2023-03-29T01:21:46.122Z,0.6
2023-03-29T01:29:12.796Z,0.6
2023-03-29T01:30:16.210Z,0.9
2023-03-29T01:31:21.746Z,1
2023-03-29T01:36:38.442Z,0.7
2023-03-29T01:38:34.668Z,0.7
2023-03-29T01:39:32.625Z,0.7
2023-03-29T01:40:33.669Z,0.8
2023-03-29T01:52:05.391Z,0.9
2023-03-29T01:55:15.534Z,0.9
2023-03-29T01:57:19.604Z,0.8
2023-03-29T01:58:21.411Z,1.2
2023-03-29T01:59:22.796Z,0.9
2023-03-29T02:02:27.794Z,0.8
2023-03-29T02:03:27.778Z,1
2023-03-29T02:05:29.946Z,1
2023-03-29T02:06:30.045Z,1
2023-03-29T02:07:30.978Z,0.8
2023-03-29T02:08:29.746Z,0.8
2023-03-29T02:09:31.598Z,0.9
2023-03-29T02:10:30.307Z,0.7
2023-03-29T02:11:30.282Z,0.7
2023-03-29T02:12:31.826Z,0.7
2023-03-29T02:13:31.836Z,0.8
2023-03-29T02:14:31.343Z,0.7
2023-03-29T02:15:31.878Z,1
2023-03-29T02:17:34.431Z,0.9
2023-03-29T02:18:35.859Z,0.6
2023-03-29T02:19:35.674Z,0.6
2023-03-29T02:20:39.295Z,0.8
2023-03-29T02:23:46.649Z,0.6
2023-03-29T02:24:46.414Z,0.7
2023-03-29T02:25:45.844Z,0.9
2023-03-29T02:26:44.919Z,1
2023-03-29T02:27:46.058Z,0.8
2023-03-29T02:28:46.058Z,0.9
2023-03-29T02:29:46.187Z,0.9
2023-03-29T02:31:56.744Z,0.7
2023-03-29T02:36:03.716Z,0.9
2023-03-29T02:37:06.983Z,0.8
2023-03-29T02:38:09.269Z,0.8
2023-03-29T02:39:09.500Z,1
2023-03-29T02:40:08.304Z,0.7
2023-03-29T02:41:08.321Z,0.7
2023-03-29T02:42:09.196Z,0.8
2023-03-29T02:43:10.314Z,0.8
2023-03-29T02:44:12.895Z,0.8
2023-03-29T02:45:16.480Z,0.9
2023-03-29T02:46:16.327Z,0.8
2023-03-29T02:47:19.563Z,1
2023-03-29T02:48:21.017Z,0.9
2023-03-29T02:49:18.967Z,0.8
2023-03-29T02:50:20.740Z,0.9
2023-03-29T02:51:23.698Z,0.8
2023-03-29T02:52:28.216Z,0.9
2023-03-29T02:54:31.292Z,0.7
2023-03-29T02:55:33.046Z,0.7
2023-03-29T02:56:41.894Z,0.7
2023-03-29T02:57:34.491Z,0.9
2023-03-29T02:58:34.797Z,0.7
2023-03-29T02:59:35.317Z,0.9
2023-03-29T03:00:40.462Z,1
2023-03-29T03:01:39.447Z,0.8
2023-03-29T03:02:38.272Z,0.8
2023-03-29T03:03:38.874Z,0.7
2023-03-29T03:04:39.048Z,0.8
2023-03-29T03:05:39.461Z,0.8
2023-03-29T03:06:39.989Z,0.7
2023-03-29T03:07:40.297Z,0.7
2023-03-29T03:08:40.813Z,0.6
2023-03-29T03:09:41.223Z,0.7
2023-03-29T03:10:41.859Z,0.8
2023-03-29T03:11:42.275Z,0.8
2023-03-29T03:12:42.264Z,0.9
2023-03-29T03:13:42.895Z,0.9
2023-03-29T03:14:43.141Z,1.1
2023-03-29T03:15:43.528Z,1
2023-03-29T03:16:44.057Z,0.9
2023-03-29T03:17:45.087Z,1.3
2023-03-29T03:18:45.372Z,1.3
2023-03-29T03:19:46.002Z,1
2023-03-29T03:20:58.776Z,1.4
2023-03-29T03:21:46.424Z,1.2
2023-03-29T03:22:47.049Z,1.2
2023-03-29T03:23:47.682Z,1
2023-03-29T03:24:47.463Z,1
2023-03-29T03:25:48.289Z,0.8
2023-03-29T03:26:48.298Z,1
2023-03-29T03:27:49.647Z,1.2
2023-03-29T03:28:49.233Z,1.3
2023-03-29T03:29:49.560Z,1.3
2023-03-29T03:30:50.273Z,1.3
2023-03-29T03:31:52.486Z,1
2023-03-29T03:32:51.114Z,1.4
2023-03-29T03:33:51.722Z,1.4
2023-03-29T03:34:52.033Z,1.1
2023-03-29T03:35:52.813Z,1.2
2023-03-29T03:36:52.772Z,1
2023-03-29T03:37:53.189Z,0.9
2023-03-29T03:38:53.492Z,1.1
2023-03-29T03:39:54.520Z,1.1
2023-03-29T03:40:55.566Z,1.5
2023-03-29T03:41:55.466Z,1.4
2023-03-29T03:42:55.870Z,1
2023-03-29T03:43:56.397Z,1
2023-03-29T03:44:56.732Z,1.5
2023-03-29T03:45:57.367Z,1.6
2023-03-29T03:46:57.649Z,1.2
2023-03-29T03:47:57.983Z,1
2023-03-29T03:48:59.601Z,1.1
2023-03-29T03:49:58.703Z,1
2023-03-29T03:50:59.269Z,1.5
2023-03-29T03:51:59.620Z,1.3
2023-03-29T03:53:00.044Z,0.9
2023-03-29T03:54:00.425Z,1.1
2023-03-29T03:55:00.687Z,1.4
2023-03-29T03:56:01.083Z,1.2
2023-03-29T03:57:01.793Z,1.2
2023-03-29T03:58:02.193Z,0.8
2023-03-29T03:59:02.348Z,1.1
2023-03-29T04:00:04.004Z,1.1
2023-03-29T04:01:03.861Z,1
2023-03-29T04:02:03.801Z,0.9
2023-03-29T04:03:04.644Z,1.1
2023-03-29T04:04:04.441Z,1
2023-03-29T04:05:05.554Z,1.1
2023-03-29T04:06:06.053Z,0.8
2023-03-29T04:07:05.658Z,1
2023-03-29T04:08:06.091Z,1
2023-03-29T04:09:06.610Z,0.8
2023-03-29T04:10:08.338Z,0.8
2023-03-29T04:11:07.291Z,1
2023-03-29T04:12:07.952Z,0.8
2023-03-29T04:13:08.170Z,0.8
2023-03-29T04:14:08.482Z,0.6
2023-03-29T04:15:09.814Z,0.8
2023-03-29T04:16:09.879Z,0.8
2023-03-29T04:17:10.860Z,0.8
2023-03-29T04:18:10.269Z,0.8
2023-03-29T04:19:10.452Z,0.8
2023-03-29T04:20:11.089Z,0.6
2023-03-29T04:21:11.286Z,0.8
2023-03-29T04:22:11.705Z,0.9
2023-03-29T04:23:12.135Z,1
2023-03-29T04:24:12.855Z,0.9
2023-03-29T04:25:13.053Z,0.9
2023-03-29T04:26:13.588Z,1
2023-03-29T04:27:13.883Z,1
2023-03-29T04:28:14.225Z,0.8
2023-03-29T04:29:14.733Z,1.1
2023-03-29T04:30:15.573Z,1
2023-03-29T04:31:18.109Z,0.9
2023-03-29T04:32:16.197Z,0.8
2023-03-29T04:33:16.181Z,0.9
2023-03-29T04:34:16.606Z,0.8
2023-03-29T04:35:17.126Z,0.9
2023-03-29T04:36:17.511Z,0.8
2023-03-29T04:37:18.054Z,0.8
2023-03-29T04:38:18.684Z,0.9
2023-03-29T04:39:18.817Z,0.9
2023-03-29T04:40:19.208Z,0.7
2023-03-29T04:41:20.250Z,0.9
2023-03-29T04:42:20.253Z,0.7
2023-03-29T04:43:20.256Z,0.7
2023-03-29T04:44:20.671Z,0.9
2023-03-29T04:45:21.342Z,0.7
2023-03-29T04:46:21.674Z,1.1
2023-03-29T04:47:22.020Z,0.8
2023-03-29T04:48:22.456Z,0.9
2023-03-29T04:49:26.234Z,0.9
2023-03-29T04:50:23.682Z,0.6
2023-03-29T04:51:24.192Z,0.7
2023-03-29T04:52:24.723Z,1
2023-03-29T04:53:24.848Z,1
2023-03-29T04:54:27.778Z,0.8
2023-03-29T04:55:25.964Z,0.9
2023-03-29T04:56:26.069Z,0.9
2023-03-29T04:57:26.666Z,0.9
2023-03-29T04:58:30.719Z,0.8
2023-03-29T04:59:30.013Z,0.8
2023-03-29T05:00:30.195Z,0.7
2023-03-29T05:01:30.556Z,0.6
2023-03-29T05:02:31.261Z,0.8
2023-03-29T05:03:31.343Z,0.8
2023-03-29T05:04:32.002Z,0.6
2023-03-29T05:05:32.180Z,0.8
2023-03-29T05:06:32.668Z,1
2023-03-29T05:07:33.043Z,0.6
2023-03-29T05:08:34.819Z,0.8
2023-03-29T05:09:35.493Z,0.9
2023-03-29T05:10:34.109Z,0.7
2023-03-29T05:11:35.084Z,1.7
2023-03-29T05:12:35.226Z,0.9
2023-03-29T05:13:35.388Z,0.8
2023-03-29T05:14:35.926Z,0.7
2023-03-29T05:15:37.158Z,0.8
2023-03-29T05:16:36.792Z,0.7
2023-03-29T05:17:40.959Z,0.7
2023-03-29T05:18:38.410Z,0.8
2023-03-29T05:19:38.725Z,0.8
2023-03-29T05:20:39.082Z,0.8
2023-03-29T05:21:39.659Z,0.5
2023-03-29T05:22:40.173Z,0.8
2023-03-29T05:23:40.393Z,1.1
2023-03-29T05:24:40.926Z,0.6
2023-03-29T05:25:41.326Z,0.9
2023-03-29T05:26:41.630Z,0.6
2023-03-29T05:27:42.151Z,0.7
2023-03-29T05:28:42.994Z,1
2023-03-29T05:29:44.113Z,1
2023-03-29T05:30:43.961Z,1
2023-03-29T05:31:43.913Z,0.7
2023-03-29T05:32:46.193Z,0.9
2023-03-29T05:33:44.584Z,0.8
2023-03-29T05:34:44.867Z,0.9
2023-03-29T05:35:45.927Z,0.6
2023-03-29T05:36:46.624Z,0.8
2023-03-29T05:37:46.217Z,1
2023-03-29T05:38:46.939Z,0.8
2023-03-29T05:39:47.250Z,0.8
2023-03-29T05:40:47.372Z,0.7
2023-03-29T05:41:48.897Z,0.8
2023-03-29T05:42:49.389Z,0.9
2023-03-29T05:43:48.608Z,0.7
2023-03-29T05:44:49.038Z,1
2023-03-29T05:45:49.573Z,0.7
2023-03-29T05:46:52.545Z,0.8
2023-03-29T05:47:52.859Z,0.8
2023-03-29T05:48:50.687Z,0.7
2023-03-29T05:49:51.073Z,0.6
2023-03-29T05:50:53.260Z,0.9
2023-03-29T05:51:52.187Z,0.9
2023-03-29T05:52:52.249Z,0.8
2023-03-29T05:53:52.765Z,0.7
2023-03-29T05:54:52.971Z,0.6
2023-03-29T05:55:53.807Z,0.7
2023-03-29T05:56:53.849Z,0.7
2023-03-29T05:57:54.348Z,0.8
2023-03-29T05:58:55.268Z,0.7
2023-03-29T05:59:55.065Z,0.6
2023-03-29T06:00:58.446Z,0.7
2023-03-29T06:01:56.032Z,0.7
2023-03-29T06:03:03.750Z,1
2023-03-29T06:04:01.167Z,1.1
2023-03-29T06:05:01.477Z,0.9
2023-03-29T06:06:03.935Z,0.9
2023-03-29T06:07:02.313Z,1.1
2023-03-29T06:08:03.112Z,0.7
2023-03-29T06:09:06.086Z,0.7
2023-03-29T06:10:04.141Z,1.1
2023-03-29T06:11:06.788Z,1.4
2023-03-29T06:12:04.650Z,1.6
2023-03-29T06:13:05.189Z,1.7
2023-03-29T06:14:05.401Z,1.1
2023-03-29T06:15:06.652Z,1.2
2023-03-29T06:16:06.853Z,1
2023-03-29T06:17:06.718Z,0.8
2023-03-29T06:18:07.248Z,0.9
2023-03-29T06:19:07.889Z,0.9
2023-03-29T06:20:09.636Z,1
2023-03-29T06:21:08.523Z,0.8
2023-03-29T06:22:08.860Z,0.9
2023-03-29T06:23:09.659Z,1
2023-03-29T06:24:10.384Z,0.9
2023-03-29T06:25:12.978Z,0.9
2023-03-29T06:26:12.878Z,0.7
2023-03-29T06:27:11.128Z,0.8
2023-03-29T06:28:11.834Z,0.6
2023-03-29T06:29:11.750Z,0.7
2023-03-29T06:30:13.290Z,0.6
2023-03-29T06:31:13.049Z,0.6
2023-03-29T06:32:13.003Z,0.6
2023-03-29T06:33:13.905Z,0.8
2023-03-29T06:34:13.695Z,0.6
2023-03-29T06:35:14.396Z,0.8
2023-03-29T06:36:14.517Z,0.7
2023-03-29T06:37:15.492Z,0.8
2023-03-29T06:38:15.805Z,0.7
2023-03-29T06:39:15.695Z,0.8
2023-03-29T06:40:18.292Z,0.6
2023-03-29T06:41:16.561Z,0.7
2023-03-29T06:42:21.688Z,0.7
2023-03-29T06:43:19.522Z,0.6
2023-03-29T06:44:19.845Z,0.5
2023-03-29T06:45:23.257Z,0.5
2023-03-29T06:46:21.701Z,0.5
2023-03-29T06:47:22.068Z,0.5
2023-03-29T06:48:22.437Z,0.5
2023-03-29T06:49:22.838Z,0.7
2023-03-29T06:50:23.358Z,0.8
2023-03-29T06:51:23.775Z,0.7
2023-03-29T06:52:24.093Z,0.6
2023-03-29T06:53:24.611Z,0.6
2023-03-29T06:54:24.926Z,0.5
2023-03-29T06:55:25.772Z,0.7
2023-03-29T06:56:26.797Z,0.8
2023-03-29T06:57:26.026Z,0.7
2023-03-29T06:58:26.593Z,0.7
2023-03-29T06:59:27.011Z,0.6
2023-03-29T07:00:27.135Z,0.5
2023-03-29T07:01:27.483Z,0.6
2023-03-29T07:02:28.078Z,0.8
2023-03-29T07:03:28.779Z,0.5
2023-03-29T07:04:28.830Z,0.6
2023-03-29T07:05:29.295Z,0.7
2023-03-29T07:06:30.236Z,0.6
2023-03-29T07:07:29.927Z,0.6
2023-03-29T07:08:30.547Z,0.6
2023-03-29T07:09:32.333Z,0.5
2023-03-29T07:10:35.988Z,0.6
2023-03-29T07:11:34.148Z,1
2023-03-29T07:12:34.195Z,0.8
2023-03-29T07:13:34.474Z,0.7
2023-03-29T07:14:38.066Z,1
2023-03-29T07:15:36.061Z,0.8
2023-03-29T07:16:36.285Z,0.6
2023-03-29T07:17:36.389Z,1
2023-03-29T07:18:36.969Z,1.1
2023-03-29T07:19:37.383Z,1.1
2023-03-29T07:20:37.591Z,1.1
2023-03-29T07:21:38.333Z,0.6
2023-03-29T07:22:38.353Z,1
2023-03-29T07:23:39.764Z,0.8
2023-03-29T07:24:39.050Z,0.9
2023-03-29T07:25:39.489Z,1.2
2023-03-29T07:26:46.342Z,1
2023-03-29T07:27:41.527Z,0.8
2023-03-29T07:28:40.834Z,0.8
2023-03-29T07:29:40.933Z,0.6
2023-03-29T07:30:41.408Z,0.8
2023-03-29T07:31:42.370Z,0.8
2023-03-29T07:32:43.306Z,0.6
2023-03-29T07:33:42.930Z,0.6
2023-03-29T07:34:43.527Z,0.6
2023-03-29T07:35:43.877Z,0.6
2023-03-29T07:36:43.734Z,0.6
2023-03-29T07:37:45.609Z,0.5
2023-03-29T07:38:44.690Z,0.6
2023-03-29T07:39:45.875Z,0.7
2023-03-29T07:40:45.509Z,0.7
2023-03-29T07:41:45.897Z,0.5
2023-03-29T07:42:47.060Z,0.7
2023-03-29T07:43:46.709Z,0.6
2023-03-29T07:44:47.389Z,0.6
2023-03-29T07:45:47.498Z,0.8
2023-03-29T07:46:47.896Z,0.5
2023-03-29T07:47:48.664Z,0.6
2023-03-29T07:48:49.137Z,0.6
2023-03-29T07:49:51.397Z,0.6
2023-03-29T07:50:50.498Z,0.6
2023-03-29T07:51:49.605Z,0.8
2023-03-29T07:52:49.981Z,0.5
2023-03-29T07:53:53.443Z,0.5
2023-03-29T07:54:50.826Z,0.6
2023-03-29T07:55:51.091Z,0.6
2023-03-29T07:56:51.476Z,0.7
2023-03-29T07:57:51.832Z,0.8
2023-03-29T07:58:52.370Z,0.6
2023-03-29T07:59:54.031Z,0.5
2023-03-29T08:00:54.305Z,0.6
2023-03-29T08:01:53.946Z,0.6
2023-03-29T08:02:53.665Z,0.6
2023-03-29T08:03:54.230Z,0.4
2023-03-29T08:04:55.174Z,0.5
2023-03-29T08:05:54.576Z,0.7
2023-03-29T08:06:54.886Z,0.6
2023-03-29T08:07:55.424Z,0.4
2023-03-29T08:08:55.630Z,0.6
2023-03-29T08:09:55.956Z,0.6
2023-03-29T08:10:56.258Z,0.7
2023-03-29T08:11:56.410Z,0.4
2023-03-29T08:12:56.905Z,0.6
2023-03-29T08:13:57.101Z,0.5
2023-03-29T08:14:57.502Z,0.4
2023-03-29T08:15:57.930Z,0.6
2023-03-29T08:16:58.173Z,0.5
2023-03-29T08:17:58.582Z,0.6
2023-03-29T08:18:58.769Z,0.3
2023-03-29T08:19:59.196Z,0.6
2023-03-29T08:20:59.587Z,0.4
2023-03-29T08:22:01.130Z,0.4
2023-03-29T08:23:00.135Z,0.5
2023-03-29T08:24:00.353Z,0.3
2023-03-29T08:25:00.962Z,0.4
2023-03-29T08:26:01.263Z,0.5
2023-03-29T08:27:01.582Z,0.5
2023-03-29T08:28:01.808Z,0.4
2023-03-29T08:29:02.046Z,0.5
2023-03-29T08:30:02.543Z,0.3
2023-03-29T08:31:03.170Z,0.3
2023-03-29T08:32:03.072Z,0.4
2023-03-29T08:33:03.363Z,0.4
2023-03-29T08:34:03.889Z,0.4
2023-03-29T08:35:05.799Z,0.4
2023-03-29T08:36:06.723Z,0.4
2023-03-29T08:37:04.733Z,0.3
2023-03-29T08:38:04.974Z,0.4
2023-03-29T08:39:05.353Z,0.4
2023-03-29T08:40:06.942Z,0.4
2023-03-29T08:49:30.409Z,0.6
2023-03-29T08:51:40.779Z,0.7
2023-03-29T08:53:44.364Z,0.7
2023-03-29T08:54:43.457Z,0.6
2023-03-29T08:56:46.878Z,0.5
2023-03-29T08:57:48.787Z,0.5
2023-03-29T09:01:57.778Z,0.5
2023-03-29T09:02:56.988Z,0.4
2023-03-29T09:07:11.601Z,0.6
2023-03-29T09:27:02.708Z,1.1
2023-03-29T09:31:21.315Z,0.4
2023-03-29T09:32:21.378Z,0.5
2023-03-29T09:37:39.230Z,0.7
2023-03-29T09:38:43.465Z,0.5
2023-03-29T09:39:41.291Z,0.5
2023-03-29T09:41:56.004Z,1.1
2023-03-29T09:42:54.631Z,1.1
2023-03-29T09:43:54.734Z,0.5
2023-03-29T09:44:56.473Z,0.5
2023-03-29T09:45:59.172Z,0.4
2023-03-29T09:49:02.053Z,0.5
2023-03-29T09:51:09.046Z,0.3
2023-03-29T09:53:09.974Z,0.6
2023-03-29T09:54:12.136Z,0.4
2023-03-29T09:56:13.955Z,0.4
2023-03-29T09:57:17.196Z,0.4
2023-03-29T09:58:22.597Z,0.6
2023-03-29T09:59:15.108Z,0.6
2023-03-29T10:00:19.120Z,0.5
2023-03-29T10:01:17.203Z,0.5
2023-03-29T10:02:19.837Z,0.4
2023-03-29T10:03:26.589Z,0.4
2023-03-29T10:04:19.238Z,0.4
2023-03-29T10:05:20.371Z,0.6
2023-03-29T10:06:23.869Z,0.5
2023-03-29T10:07:21.495Z,0.4
2023-03-29T10:08:29.717Z,0.4
2023-03-29T10:09:24.095Z,0.4
2023-03-29T10:12:29.017Z,0.9
2023-03-29T10:15:34.992Z,0.6
2023-03-29T10:16:39.041Z,0.5
2023-03-29T10:17:41.098Z,0.4
2023-03-29T10:18:42.270Z,0.9
2023-03-29T10:20:42.689Z,0.6
2023-03-29T10:21:43.007Z,0.7
2023-03-29T10:22:48.745Z,0.7
2023-03-29T10:23:45.997Z,0.8
2023-03-29T10:24:54.847Z,0.7
2023-03-29T10:25:47.438Z,0.6
2023-03-29T10:26:48.783Z,0.6
2023-03-29T10:27:48.063Z,0.6
2023-03-29T10:28:48.483Z,0.5
2023-03-29T10:29:48.898Z,0.6
2023-03-29T10:30:55.175Z,1.1
2023-03-29T10:31:53.313Z,0.5
2023-03-29T10:32:58.290Z,0.5
2023-03-29T10:33:58.202Z,0.6
2023-03-29T10:36:06.739Z,0.4
2023-03-29T10:37:04.097Z,0.4
2023-03-29T10:38:10.046Z,0.5
2023-03-29T10:39:08.107Z,0.3
2023-03-29T10:41:14.060Z,0.5
2023-03-29T10:45:29.664Z,0.4
2023-03-29T10:47:32.265Z,0.5
2023-03-29T10:48:31.832Z,0.5
2023-03-29T10:49:41.270Z,0.4
2023-03-29T10:50:35.640Z,0.6
2023-03-29T10:51:33.993Z,0.5
2023-03-29T10:52:35.121Z,0.5
2023-03-29T10:53:37.174Z,0.5
2023-03-29T10:54:35.870Z,0.5
2023-03-29T10:55:42.931Z,0.3
2023-03-29T10:56:43.775Z,1.7
2023-03-29T11:29:07.234Z,0.5
2023-03-29T11:30:07.336Z,0.4
2023-03-29T11:32:16.959Z,0.4
2023-03-29T11:37:35.144Z,0.4
2023-03-29T11:44:47.029Z,0.5
2023-03-29T11:47:51.663Z,0.4
2023-03-29T12:00:28.821Z,0.5
2023-03-29T12:04:38.986Z,0.5
2023-03-29T12:05:36.128Z,0.4
2023-03-29T12:10:49.893Z,1.2
2023-03-29T12:15:07.195Z,0.5
2023-03-29T12:22:12.458Z,0.7
2023-03-29T12:23:15.110Z,0.8
2023-03-29T12:24:15.270Z,0.4
2023-03-29T12:25:21.305Z,0.5
2023-03-29T12:38:57.356Z,0.3
2023-03-29T12:41:01.391Z,0.5
2023-03-29T12:43:07.016Z,0.3
2023-03-29T12:44:05.257Z,0.3
2023-03-29T12:45:05.474Z,0.4
2023-03-29T12:46:09.321Z,0.4
2023-03-29T12:47:06.925Z,0.4
2023-03-29T12:48:15.228Z,0.3
2023-03-29T13:01:37.898Z,0.4
2023-03-29T13:02:36.522Z,0.8
2023-03-29T13:05:41.179Z,1.8
2023-03-29T13:07:46.799Z,0.3
2023-03-29T13:09:54.998Z,0.3
2023-03-29T13:10:56.649Z,0.4
2023-03-29T13:11:57.986Z,0.4
2023-03-29T13:12:55.338Z,0.4
2023-03-29T13:13:56.370Z,0.3
2023-03-29T13:39:03.696Z,0.5
2023-03-29T13:40:01.034Z,0.4
2023-03-29T13:49:29.466Z,0.5
2023-03-29T13:52:33.381Z,0.7
2023-03-29T13:53:40.012Z,0.7
2023-03-29T13:54:44.288Z,0.4
2023-03-29T13:55:48.751Z,0.5
2023-03-29T13:58:54.238Z,0.4
2023-03-29T14:01:02.617Z,0.5
2023-03-29T14:02:00.828Z,0.4
2023-03-29T14:03:00.127Z,0.4
2023-03-29T14:03:59.374Z,0.3
2023-03-29T14:05:01.297Z,0.4
2023-03-29T14:06:02.086Z,0.5
2023-03-29T14:07:01.539Z,0.4
2023-03-29T14:09:07.913Z,0.4
2023-03-29T14:10:07.166Z,0.4
2023-03-29T14:12:12.713Z,0.4
2023-03-29T14:13:14.983Z,0.3
2023-03-29T14:14:13.135Z,0.4
2023-03-29T14:15:26.675Z,0.6
2023-03-29T14:16:14.423Z,0.7
2023-03-29T14:17:21.551Z,0.6
2023-03-29T14:18:23.734Z,0.7
2023-03-29T14:20:27.962Z,0.5
2023-03-29T14:21:26.186Z,0.4
2023-03-29T14:22:31.632Z,0.4
2023-03-29T14:23:31.743Z,0.4
2023-03-29T14:24:39.212Z,0.4
2023-03-29T14:25:31.534Z,0.4
2023-03-29T14:26:34.242Z,0.4
2023-03-29T14:27:35.770Z,0.4
2023-03-29T14:28:33.726Z,0.7
2023-03-29T14:29:36.285Z,0.4
2023-03-29T14:30:33.824Z,0.6
2023-03-29T14:31:37.011Z,0.6
2023-03-29T14:32:36.825Z,0.7
2023-03-29T14:33:36.195Z,0.4
2023-03-29T14:34:35.295Z,0.4
2023-03-29T14:35:38.451Z,0.4
2023-03-29T14:36:36.266Z,0.5
2023-03-29T14:37:36.451Z,0.5
2023-03-29T14:38:36.959Z,0.5
2023-03-29T14:39:37.755Z,0.6
2023-03-29T14:40:37.390Z,0.6
2023-03-29T14:41:38.770Z,0.7
2023-03-29T14:42:38.408Z,0.4
2023-03-29T14:43:38.832Z,0.3
2023-03-29T14:44:39.044Z,0.3
2023-03-29T14:45:39.275Z,0.4
2023-03-29T14:46:44.474Z,0.3
2023-03-29T14:47:44.105Z,0.4
2023-03-29T14:48:43.165Z,0.3
2023-03-29T14:49:43.593Z,0.4
2023-03-29T14:50:44.931Z,0.4
2023-03-29T14:51:47.312Z,0.4
2023-03-29T14:52:47.541Z,0.4
2023-03-29T14:53:46.782Z,0.4
2023-03-29T14:54:51.409Z,0.3
2023-03-29T14:55:53.360Z,0.4
2023-03-29T14:56:51.575Z,0.4
2023-03-29T14:57:54.188Z,0.4
2023-03-29T14:58:54.641Z,0.6
2023-03-29T15:00:01.463Z,0.6
2023-03-29T15:00:54.101Z,0.7
2023-03-29T15:01:54.349Z,0.6
2023-03-29T15:03:02.571Z,0.5
2023-03-29T15:04:04.957Z,0.5
2023-03-29T15:05:06.014Z,0.5
2023-03-29T15:06:04.322Z,0.6
2023-03-29T15:07:05.607Z,0.7
2023-03-29T15:08:04.798Z,0.5
2023-03-29T15:09:06.206Z,0.6
2023-03-29T15:10:08.122Z,0.4
2023-03-29T15:11:18.569Z,0.5
2023-03-29T15:12:06.772Z,0.5
2023-03-29T15:13:08.019Z,0.8
2023-03-29T15:14:15.904Z,1.1
2023-03-29T15:15:12.532Z,1.4
2023-03-29T15:16:14.617Z,0.9
2023-03-29T15:18:17.072Z,0.5
2023-03-29T15:19:25.446Z,0.6
2023-03-29T15:20:31.502Z,0.4
2023-03-29T15:21:22.096Z,0.4
2023-03-29T15:22:19.538Z,0.4
2023-03-29T15:23:24.396Z,0.3
2023-03-29T15:24:34.200Z,0.4
2023-03-29T15:28:33.716Z,0.3
2023-03-29T15:29:40.393Z,0.6
2023-03-29T15:31:44.748Z,0.9
2023-03-29T15:32:37.102Z,0.8
2023-03-29T15:33:41.697Z,0.7
2023-03-29T15:34:39.389Z,0.7
2023-03-29T15:35:39.509Z,0.8
2023-03-29T15:36:43.159Z,0.7
2023-03-29T15:37:40.624Z,0.7
2023-03-29T15:38:48.521Z,0.7
2023-03-29T15:39:45.789Z,0.6
2023-03-29T15:40:47.400Z,0.5
2023-03-29T15:41:51.078Z,0.4
2023-03-29T15:42:48.846Z,0.8
2023-03-29T15:43:48.778Z,0.4
2023-03-29T15:44:53.372Z,0.7
2023-03-29T15:45:50.822Z,0.5
2023-03-29T15:46:51.048Z,0.6
2023-03-29T15:47:51.293Z,0.4
2023-03-29T15:48:51.757Z,0.5
2023-03-29T15:49:52.018Z,0.4
2023-03-29T15:50:53.426Z,0.5
2023-03-29T15:51:53.512Z,1.4
2023-03-29T15:52:54.809Z,0.9
2023-03-29T15:53:53.636Z,1.4
2023-03-29T15:54:54.273Z,1.3
2023-03-29T15:55:58.675Z,0.5
2023-03-29T15:57:01.505Z,0.5
2023-03-29T15:57:59.196Z,0.6
2023-03-29T15:58:59.319Z,0.5
2023-03-29T15:59:59.511Z,0.8
2023-03-29T16:02:05.163Z,0.7
2023-03-29T16:03:09.585Z,0.9
2023-03-29T16:04:11.831Z,0.6
2023-03-29T16:05:11.537Z,0.7
2023-03-29T16:06:11.647Z,0.7
2023-03-29T16:07:15.358Z,0.6
2023-03-29T16:08:14.134Z,0.6
2023-03-29T16:09:13.518Z,0.4
2023-03-29T16:10:13.515Z,0.5
2023-03-29T16:11:13.934Z,0.6
2023-03-29T16:12:14.246Z,0.4
2023-03-29T16:13:15.481Z,0.5
2023-03-29T16:14:25.931Z,0.5
2023-03-29T16:15:22.253Z,0.5
2023-03-29T16:16:19.621Z,0.5
2023-03-29T16:17:19.900Z,0.5
2023-03-29T16:18:20.849Z,0.5
2023-03-29T16:19:21.053Z,0.5
2023-03-29T16:20:21.150Z,0.5
2023-03-29T16:21:22.457Z,0.5
2023-03-29T16:22:21.803Z,0.5
2023-03-29T16:23:22.288Z,0.5
2023-03-29T16:24:25.400Z,0.3
2023-03-29T16:25:23.442Z,0.4
2023-03-29T16:26:24.364Z,0.4
2023-03-29T16:27:25.786Z,0.5
2023-03-29T16:28:23.907Z,0.4
2023-03-29T16:29:24.998Z,0.5
2023-03-29T16:30:24.506Z,0.5
2023-03-29T16:31:24.933Z,0.4
2023-03-29T16:32:25.422Z,0.3
2023-03-29T16:33:25.868Z,0.4
2023-03-29T16:34:25.874Z,0.4
2023-03-29T16:35:29.451Z,0.6
2023-03-29T16:36:27.185Z,0.4
2023-03-29T16:37:28.743Z,0.5
2023-03-29T16:38:28.147Z,0.4
2023-03-29T16:39:27.848Z,0.3
2023-03-29T16:40:28.271Z,0.5
2023-03-29T16:41:29.386Z,0.4
2023-03-29T16:42:28.878Z,0.5
2023-03-29T16:43:29.301Z,0.3
2023-03-29T16:44:32.577Z,0.4
2023-03-29T16:45:29.921Z,0.4
2023-03-29T16:46:30.770Z,0.5
2023-03-29T16:47:30.990Z,0.4
2023-03-29T16:48:30.964Z,0.9
2023-03-29T16:49:31.797Z,0.8
2023-03-29T16:50:32.122Z,1
2023-03-29T16:51:32.229Z,0.7
2023-03-29T16:52:32.640Z,0.6
2023-03-29T16:53:33.264Z,0.6
2023-03-29T16:54:32.960Z,0.7
2023-03-29T16:55:33.242Z,0.7
2023-03-29T16:56:33.575Z,0.6
2023-03-29T16:57:37.085Z,0.8
2023-03-29T16:58:34.651Z,0.6
2023-03-29T16:59:34.936Z,0.7
2023-03-29T17:00:35.355Z,0.5
2023-03-29T17:01:35.775Z,0.7
2023-03-29T17:02:35.922Z,0.6
2023-03-29T17:03:36.709Z,0.7
2023-03-29T17:04:36.531Z,0.8
2023-03-29T17:05:36.825Z,1.9
2023-03-29T17:06:37.212Z,2.1
2023-03-29T17:07:38.051Z,1.1
2023-03-29T17:08:38.894Z,1
2023-03-29T17:09:38.325Z,1.2
2023-03-29T17:10:40.803Z,1.3
2023-03-29T17:11:38.852Z,0.9
2023-03-29T17:12:39.753Z,0.9
2023-03-29T17:13:42.629Z,1.3
2023-03-29T17:14:40.445Z,0.9
2023-03-29T17:15:40.636Z,1.1
2023-03-29T17:16:40.876Z,0.8
2023-03-29T17:17:41.317Z,0.9
2023-03-29T17:18:41.432Z,0.8
2023-03-29T17:19:41.834Z,0.8
2023-03-29T17:20:42.052Z,0.8
2023-03-29T17:21:43.188Z,0.7
2023-03-29T17:22:43.798Z,0.8
2023-03-29T17:23:43.363Z,0.6
2023-03-29T17:24:44.235Z,0.7
2023-03-29T17:25:44.232Z,0.5
2023-03-29T17:26:45.889Z,0.6
2023-03-29T17:27:44.954Z,0.6
2023-03-29T17:28:44.671Z,0.5
2023-03-29T17:29:45.271Z,0.5
2023-03-29T17:30:46.978Z,0.5
2023-03-29T17:31:48.107Z,0.5
2023-03-29T17:32:47.420Z,0.6
2023-03-29T17:33:47.783Z,0.6
2023-03-29T17:34:49.611Z,0.5
2023-03-29T17:35:51.876Z,0.5
2023-03-29T17:36:51.887Z,0.5
2023-03-29T17:37:49.987Z,0.5
2023-03-29T17:38:50.784Z,0.5
2023-03-29T17:39:50.472Z,0.4
2023-03-29T17:40:53.887Z,0.5
2023-03-29T17:41:51.298Z,0.6
2023-03-29T17:42:51.712Z,0.6
2023-03-29T17:43:52.057Z,0.5
2023-03-29T17:44:52.449Z,0.5
2023-03-29T17:45:53.317Z,0.5
2023-03-29T17:46:53.150Z,0.5
2023-03-29T17:47:53.332Z,0.5
2023-03-29T17:48:53.699Z,0.6
2023-03-29T17:49:53.903Z,0.6
2023-03-29T17:50:58.321Z,0.6
2023-03-29T17:51:56.192Z,0.6
2023-03-29T17:52:56.286Z,0.5
2023-03-29T17:53:57.130Z,0.6
2023-03-29T17:54:57.131Z,0.9
2023-03-29T17:55:57.221Z,0.6
2023-03-29T17:56:57.705Z,0.5
2023-03-29T17:57:59.008Z,0.7
2023-03-29T17:58:58.386Z,0.8
2023-03-29T17:59:58.495Z,0.7
2023-03-29T18:00:59.071Z,0.6
2023-03-29T18:01:59.732Z,0.6
2023-03-29T18:02:59.861Z,0.6
2023-03-29T18:04:00.110Z,0.5
2023-03-29T18:05:00.660Z,0.6
2023-03-29T18:06:01.116Z,0.6
2023-03-29T18:07:01.494Z,0.6
2023-03-29T18:08:04.878Z,0.5
2023-03-29T18:09:02.515Z,0.7
2023-03-29T18:10:03.053Z,0.6
2023-03-29T18:12:04.916Z,0.7
2023-03-29T18:13:04.626Z,0.6
2023-03-29T18:14:05.048Z,0.7
2023-03-29T18:15:08.943Z,0.6
2023-03-29T18:16:08.488Z,0.5
2023-03-29T18:17:07.825Z,0.5
2023-03-29T18:18:07.035Z,0.6
2023-03-29T18:19:07.630Z,0.7
2023-03-29T18:20:08.645Z,0.5
2023-03-29T18:21:08.168Z,0.6
2023-03-29T18:22:08.892Z,0.6
2023-03-29T18:23:10.854Z,0.6
2023-03-29T18:24:09.400Z,0.6
2023-03-29T18:25:11.871Z,0.4
2023-03-29T18:26:10.260Z,0.7
2023-03-29T18:27:10.544Z,0.5
2023-03-29T18:28:10.962Z,0.5
2023-03-29T18:29:11.488Z,0.6
2023-03-29T18:30:12.831Z,0.5
2023-03-29T18:31:12.217Z,0.5